createdAt,value
2022-07-31T00:00:32.992Z,2.75
2022-07-31T00:03:00.323Z,2.38
2022-07-31T00:05:27.984Z,2.63
2022-07-31T00:07:55.484Z,2.67
2022-07-31T00:10:23.470Z,2.70
2022-07-31T00:12:50.854Z,2.60
2022-07-31T00:15:18.479Z,2.47
2022-07-31T00:17:46.661Z,2.70
2022-07-31T00:20:16.952Z,2.58
2022-07-31T00:22:46.254Z,2.83
2022-07-31T00:25:15.082Z,2.40
2022-07-31T00:27:43.260Z,2.40
2022-07-31T00:30:17.054Z,2.50
2022-07-31T00:32:44.959Z,2.70
2022-07-31T00:35:14.285Z,2.38
2022-07-31T00:37:43.441Z,2.83
2022-07-31T00:40:13.459Z,2.83
2022-07-31T00:42:40.838Z,2.70
2022-07-31T00:45:09.877Z,2.67
2022-07-31T00:47:40.678Z,2.65
2022-07-31T00:50:08.483Z,2.75
2022-07-31T00:52:35.780Z,2.67
2022-07-31T00:55:03.963Z,2.80
2022-07-31T00:57:31.734Z,2.50
2022-07-31T00:59:59.324Z,3.03
2022-07-31T01:02:26.564Z,2.63
2022-07-31T01:04:53.913Z,2.83
2022-07-31T01:07:21.189Z,2.63
2022-07-31T01:09:50.060Z,3.00
2022-07-31T01:12:31.844Z,2.85
2022-07-31T01:15:03.512Z,2.50
2022-07-31T01:17:33.157Z,2.60
2022-07-31T01:20:00.565Z,2.90
2022-07-31T01:22:46.078Z,2.60
2022-07-31T01:25:58.961Z,2.53
2022-07-31T01:28:58.331Z,2.60
2022-07-31T01:31:34.161Z,2.67
2022-07-31T01:34:16.698Z,2.67
2022-07-31T01:36:52.444Z,2.70
2022-07-31T01:39:20.094Z,2.75
2022-07-31T01:41:50.201Z,2.58
2022-07-31T01:44:19.672Z,2.80
2022-07-31T01:46:48.830Z,2.53
2022-07-31T01:49:19.628Z,2.80
2022-07-31T01:51:48.311Z,2.72
2022-07-31T01:54:20.561Z,2.50
2022-07-31T01:56:49.984Z,2.55
2022-07-31T01:59:22.979Z,2.88
2022-07-31T02:02:31.710Z,2.40
2022-07-31T02:04:59.988Z,2.40
2022-07-31T02:07:29.746Z,2.90
2022-07-31T02:09:59.288Z,2.28
2022-07-31T02:12:34.055Z,2.72
2022-07-31T02:15:23.268Z,2.60
2022-07-31T02:17:54.551Z,2.42
2022-07-31T02:20:25.893Z,2.65
2022-07-31T02:22:56.067Z,2.70
2022-07-31T02:25:23.695Z,2.30
2022-07-31T02:27:54.338Z,2.65
2022-07-31T02:30:38.302Z,2.70
2022-07-31T02:33:12.554Z,2.55
2022-07-31T02:35:45.077Z,2.78
2022-07-31T02:38:23.242Z,2.40
2022-07-31T02:40:59.394Z,2.97
2022-07-31T02:43:32.033Z,2.50
2022-07-31T02:46:06.135Z,2.67
2022-07-31T02:48:33.993Z,2.45
2022-07-31T02:51:05.614Z,2.65
2022-07-31T02:53:34.780Z,2.40
2022-07-31T02:56:04.743Z,2.40
2022-07-31T02:58:43.743Z,2.70
2022-07-31T03:01:21.404Z,2.42
2022-07-31T03:03:50.825Z,2.45
2022-07-31T03:06:18.688Z,2.33
2022-07-31T03:08:45.995Z,2.30
2022-07-31T03:11:17.850Z,2.10
2022-07-31T03:13:48.046Z,2.60
2022-07-31T03:16:16.913Z,2.30
2022-07-31T03:18:46.175Z,2.30
2022-07-31T03:21:14.213Z,2.38
2022-07-31T03:23:41.868Z,2.40
2022-07-31T03:26:15.335Z,2.40
2022-07-31T03:28:43.479Z,2.60
2022-07-31T03:31:11.042Z,2.85
2022-07-31T03:33:38.335Z,2.65
2022-07-31T03:36:05.806Z,2.83
2022-07-31T03:38:41.125Z,2.50
2022-07-31T03:41:22.078Z,2.72
2022-07-31T03:43:49.940Z,2.75
2022-07-31T03:46:22.373Z,3.13
2022-07-31T03:48:52.857Z,3.05
2022-07-31T03:51:21.882Z,3.20
2022-07-31T03:53:49.645Z,2.80
2022-07-31T03:56:50.276Z,3.00
2022-07-31T03:59:19.797Z,3.28
2022-07-31T04:01:57.838Z,3.20
2022-07-31T04:04:55.371Z,3.33
2022-07-31T04:07:22.851Z,3.20
2022-07-31T04:09:50.543Z,3.17
2022-07-31T04:12:18.148Z,2.88
2022-07-31T04:14:46.044Z,2.95
2022-07-31T04:17:13.455Z,3.00
2022-07-31T04:19:41.389Z,2.80
2022-07-31T04:22:09.047Z,2.53
2022-07-31T04:24:37.660Z,2.55
2022-07-31T04:27:23.608Z,2.72
2022-07-31T04:29:50.938Z,3.05
2022-07-31T04:32:21.871Z,2.40
2022-07-31T04:34:54.651Z,2.88
2022-07-31T04:37:22.156Z,2.53
2022-07-31T04:39:49.612Z,2.70
2022-07-31T04:42:17.045Z,2.50
2022-07-31T04:44:45.304Z,2.70
2022-07-31T04:47:12.933Z,2.80
2022-07-31T04:49:47.394Z,2.83
2022-07-31T04:52:17.204Z,2.85
2022-07-31T04:54:46.781Z,2.90
2022-07-31T04:57:19.772Z,2.90
2022-07-31T04:59:59.663Z,3.47
2022-07-31T05:02:31.752Z,3.10
2022-07-31T05:04:59.273Z,3.20
2022-07-31T05:07:41.304Z,3.50
2022-07-31T05:10:33.642Z,3.58
2022-07-31T05:13:01.191Z,3.55
2022-07-31T05:15:29.435Z,3.83
2022-07-31T05:17:57.196Z,3.90
2022-07-31T05:20:47.803Z,4.18
2022-07-31T05:23:32.994Z,4.07
2022-07-31T05:26:31.730Z,4.03
2022-07-31T05:29:07.666Z,4.75
2022-07-31T05:31:35.136Z,4.35
2022-07-31T05:34:02.519Z,4.40
2022-07-31T05:36:30.129Z,4.68
2022-07-31T05:38:57.523Z,4.43
2022-07-31T05:41:40.166Z,4.55
2022-07-31T05:44:08.293Z,4.70
2022-07-31T05:46:41.927Z,4.63
2022-07-31T05:49:10.101Z,4.85
2022-07-31T05:51:38.140Z,4.82
2022-07-31T05:54:05.549Z,4.40
2022-07-31T05:56:51.668Z,5.15
2022-07-31T05:59:24.918Z,4.68
2022-07-31T06:01:53.466Z,5.15
2022-07-31T06:04:20.789Z,4.70
2022-07-31T06:06:48.437Z,5.15
2022-07-31T06:09:16.380Z,5.20
2022-07-31T06:11:45.680Z,4.88
2022-07-31T06:14:13.814Z,5.22
2022-07-31T06:17:01.083Z,4.68
2022-07-31T06:19:28.561Z,4.90
2022-07-31T06:21:56.128Z,4.97
2022-07-31T06:24:23.861Z,5.32
2022-07-31T06:26:57.564Z,5.60
2022-07-31T06:29:41.467Z,5.28
2022-07-31T06:32:10.000Z,5.10
2022-07-31T06:34:37.712Z,5.20
2022-07-31T06:37:06.082Z,5.30
2022-07-31T06:39:54.843Z,5.43
2022-07-31T06:42:39.173Z,5.70
2022-07-31T06:45:07.103Z,5.25
2022-07-31T06:47:53.207Z,5.38
2022-07-31T06:50:44.111Z,5.47
2022-07-31T06:53:31.820Z,5.72
2022-07-31T06:55:59.152Z,5.65
2022-07-31T06:58:27.159Z,5.15
2022-07-31T07:00:55.831Z,5.32
2022-07-31T07:03:24.118Z,5.30
2022-07-31T07:05:51.369Z,5.28
2022-07-31T07:08:18.777Z,5.05
2022-07-31T07:10:49.391Z,5.28
2022-07-31T07:13:46.337Z,5.63
2022-07-31T07:16:18.264Z,5.18
2022-07-31T07:18:45.667Z,5.10
2022-07-31T07:21:13.220Z,5.15
2022-07-31T07:23:40.908Z,5.10
2022-07-31T07:26:34.313Z,5.25
2022-07-31T07:29:03.130Z,5.10
2022-07-31T07:31:36.438Z,5.15
2022-07-31T07:34:06.432Z,5.50
2022-07-31T07:36:33.966Z,5.25
2022-07-31T07:39:04.735Z,5.30
2022-07-31T07:41:33.842Z,5.30
2022-07-31T07:44:01.869Z,5.40
2022-07-31T07:46:30.724Z,5.10
2022-07-31T07:49:02.710Z,5.60
2022-07-31T07:51:58.784Z,5.50
2022-07-31T07:54:40.995Z,5.45
2022-07-31T07:57:27.374Z,5.50
2022-07-31T08:00:13.642Z,5.50
2022-07-31T08:03:46.698Z,5.20
2022-07-31T08:05:33.723Z,5.63
2022-07-31T08:08:02.627Z,6.05
2022-07-31T08:10:52.445Z,5.47
2022-07-31T08:13:24.809Z,5.35
2022-07-31T08:16:05.672Z,5.90
2022-07-31T08:18:44.585Z,5.60
2022-07-31T08:21:12.245Z,5.88
2022-07-31T08:23:39.439Z,5.38
2022-07-31T08:26:08.789Z,5.93
2022-07-31T08:28:36.408Z,5.97
2022-07-31T08:31:03.876Z,6.03
2022-07-31T08:33:33.849Z,5.90
2022-07-31T08:36:01.800Z,5.97
2022-07-31T08:38:29.838Z,5.82
2022-07-31T08:41:26.625Z,6.00
2022-07-31T08:44:01.994Z,5.32
2022-07-31T08:46:37.966Z,5.55
2022-07-31T08:49:06.493Z,5.10
2022-07-31T08:51:51.699Z,5.45
2022-07-31T08:54:26.565Z,5.30
2022-07-31T08:56:54.232Z,4.80
2022-07-31T08:59:23.277Z,4.78
2022-07-31T09:01:51.585Z,4.88
2022-07-31T09:04:19.033Z,4.30
2022-07-31T09:06:46.344Z,4.25
2022-07-31T09:09:16.796Z,5.03
2022-07-31T09:11:53.920Z,4.22
2022-07-31T09:14:48.034Z,4.25
2022-07-31T09:17:16.063Z,4.50
2022-07-31T09:19:52.650Z,4.90
2022-07-31T09:22:32.065Z,5.03
2022-07-31T09:25:08.889Z,4.70
2022-07-31T09:27:38.027Z,4.45
2022-07-31T09:30:07.586Z,4.03
2022-07-31T09:33:17.829Z,4.90
2022-07-31T09:36:08.126Z,4.80
2022-07-31T09:38:40.192Z,5.13
2022-07-31T09:42:01.572Z,5.05
2022-07-31T09:46:53.964Z,4.30
2022-07-31T09:49:31.470Z,4.80
2022-07-31T09:52:00.778Z,4.82
2022-07-31T09:54:31.581Z,4.32
2022-07-31T09:57:09.846Z,4.32
2022-07-31T09:59:38.933Z,5.10
2022-07-31T10:02:08.984Z,5.07
2022-07-31T10:04:39.442Z,5.20
2022-07-31T10:07:24.422Z,6.70
2022-07-31T10:10:09.045Z,5.15
2022-07-31T10:12:55.825Z,5.47
2022-07-31T10:15:26.387Z,5.50
2022-07-31T10:18:12.200Z,6.70
2022-07-31T10:21:23.922Z,6.15
2022-07-31T10:24:00.706Z,7.03
2022-07-31T10:26:50.696Z,5.30
2022-07-31T10:29:18.102Z,4.97
2022-07-31T10:31:47.091Z,5.00
2022-07-31T10:34:15.913Z,4.88
2022-07-31T10:37:30.082Z,4.90
2022-07-31T10:40:25.364Z,5.07
2022-07-31T10:43:24.840Z,5.13
2022-07-31T10:46:05.605Z,4.93
2022-07-31T10:49:02.176Z,5.10
2022-07-31T10:52:26.624Z,4.93
2022-07-31T10:55:02.437Z,5.22
2022-07-31T10:57:57.212Z,5.10
2022-07-31T11:00:34.544Z,4.75
2022-07-31T11:03:22.689Z,5.10
2022-07-31T11:06:08.343Z,4.75
2022-07-31T11:08:54.992Z,5.38
2022-07-31T11:11:45.771Z,4.50
2022-07-31T11:14:48.455Z,4.70
2022-07-31T11:18:22.655Z,5.60
2022-07-31T11:20:33.092Z,5.80
2022-07-31T11:23:01.728Z,5.07
2022-07-31T11:25:31.176Z,4.93
2022-07-31T11:28:14.812Z,5.07
2022-07-31T11:30:50.806Z,4.65
2022-07-31T11:33:41.876Z,4.82
2022-07-31T11:36:14.253Z,5.20
2022-07-31T11:38:46.919Z,4.93
2022-07-31T11:41:15.605Z,4.80
2022-07-31T11:43:47.785Z,5.07
2022-07-31T11:46:25.359Z,5.22
2022-07-31T11:48:53.315Z,5.20
2022-07-31T11:51:21.861Z,5.40
2022-07-31T11:53:56.989Z,5.05
2022-07-31T11:56:27.153Z,5.00
2022-07-31T11:58:58.710Z,5.50
2022-07-31T12:01:29.870Z,5.38
2022-07-31T12:03:59.715Z,5.88
2022-07-31T12:06:37.812Z,5.10
2022-07-31T12:09:05.271Z,5.15
2022-07-31T12:11:32.776Z,4.90
2022-07-31T12:14:00.076Z,4.63
2022-07-31T12:16:27.586Z,4.90
2022-07-31T12:19:01.586Z,5.20
2022-07-31T12:21:37.972Z,5.03
2022-07-31T12:24:13.963Z,5.35
2022-07-31T12:26:49.054Z,5.45
2022-07-31T12:29:16.561Z,4.70
2022-07-31T12:31:51.904Z,5.00
2022-07-31T12:34:32.504Z,5.43
2022-07-31T12:37:06.184Z,5.47
2022-07-31T12:39:53.703Z,6.15
2022-07-31T12:42:35.099Z,5.60
2022-07-31T12:45:19.520Z,5.95
2022-07-31T12:47:51.441Z,6.25
2022-07-31T12:50:21.224Z,6.22
2022-07-31T12:52:48.530Z,6.40
2022-07-31T12:55:17.584Z,5.75
2022-07-31T12:57:51.086Z,6.30
2022-07-31T13:00:23.124Z,6.00
2022-07-31T13:02:52.180Z,5.90
2022-07-31T13:05:19.835Z,6.43
2022-07-31T13:07:47.766Z,5.85
2022-07-31T13:10:21.912Z,6.00
2022-07-31T13:12:53.059Z,5.88
2022-07-31T13:15:23.486Z,5.43
2022-07-31T13:17:51.206Z,5.70
2022-07-31T13:20:19.356Z,6.65
2022-07-31T13:22:46.696Z,5.50
2022-07-31T13:25:14.782Z,6.30
2022-07-31T13:27:42.087Z,5.45
2022-07-31T13:30:11.060Z,5.93
2022-07-31T13:32:38.447Z,6.68
2022-07-31T13:35:26.389Z,7.07
2022-07-31T13:37:55.308Z,6.90
2022-07-31T13:40:41.257Z,7.28
2022-07-31T13:43:09.251Z,7.60
2022-07-31T13:45:36.609Z,7.70
2022-07-31T13:48:09.646Z,7.50
2022-07-31T13:50:41.620Z,8.07
2022-07-31T13:53:09.846Z,7.80
2022-07-31T13:55:37.777Z,8.20
2022-07-31T13:58:05.329Z,7.50
2022-07-31T14:00:33.787Z,8.38
2022-07-31T14:03:01.222Z,8.90
2022-07-31T14:05:28.965Z,8.43
2022-07-31T14:07:59.353Z,9.10
2022-07-31T14:10:48.467Z,8.57
2022-07-31T14:13:18.880Z,8.48
2022-07-31T14:15:47.600Z,9.60
2022-07-31T14:18:15.869Z,9.48
2022-07-31T14:20:43.298Z,9.07
2022-07-31T14:23:10.786Z,9.50
2022-07-31T14:25:39.152Z,9.45
2022-07-31T14:28:07.933Z,8.65
2022-07-31T14:30:36.769Z,9.18
2022-07-31T14:33:05.271Z,8.48
2022-07-31T14:35:33.808Z,8.40
2022-07-31T14:38:04.159Z,8.70
2022-07-31T14:40:31.959Z,8.32
2022-07-31T14:42:59.566Z,8.38
2022-07-31T14:45:27.311Z,8.10
2022-07-31T14:47:55.407Z,8.02
2022-07-31T14:50:23.513Z,7.70
2022-07-31T14:52:50.826Z,7.95
2022-07-31T14:55:19.600Z,7.57
2022-07-31T14:57:46.893Z,7.10
2022-07-31T15:00:23.448Z,7.25
2022-07-31T15:02:51.008Z,6.75
2022-07-31T15:06:43.844Z,6.82
2022-07-31T15:08:06.045Z,6.78
2022-07-31T15:10:33.473Z,7.32
2022-07-31T15:13:00.842Z,7.28
2022-07-31T15:15:28.592Z,6.80
2022-07-31T15:17:56.526Z,6.70
2022-07-31T15:20:32.610Z,6.75
2022-07-31T15:23:01.700Z,5.93
2022-07-31T15:25:29.183Z,5.65
2022-07-31T15:27:56.566Z,5.68
2022-07-31T15:30:24.339Z,6.10
2022-07-31T15:32:54.056Z,6.60
2022-07-31T15:35:21.381Z,6.68
2022-07-31T15:37:49.762Z,7.45
2022-07-31T15:40:17.583Z,7.72
2022-07-31T15:42:46.161Z,7.20
2022-07-31T15:45:16.033Z,7.10
2022-07-31T15:47:44.250Z,7.40
2022-07-31T15:50:13.278Z,7.00
2022-07-31T15:52:41.541Z,7.05
2022-07-31T15:55:10.342Z,6.95
2022-07-31T15:57:38.698Z,6.30
2022-07-31T16:00:09.618Z,6.47
2022-07-31T16:02:41.529Z,6.65
2022-07-31T16:05:20.046Z,6.63
2022-07-31T16:08:28.541Z,6.15
2022-07-31T16:10:38.129Z,5.82
2022-07-31T16:13:05.426Z,5.65
2022-07-31T16:15:35.437Z,5.00
2022-07-31T16:18:04.213Z,5.38
2022-07-31T16:20:31.696Z,5.20
2022-07-31T16:23:01.657Z,5.30
2022-07-31T16:25:32.097Z,5.22
2022-07-31T16:28:04.823Z,5.35
2022-07-31T16:30:32.719Z,5.00
2022-07-31T16:33:00.145Z,4.85
2022-07-31T16:35:27.768Z,4.72
2022-07-31T16:37:55.285Z,5.20
2022-07-31T16:40:28.229Z,5.40
2022-07-31T16:43:47.902Z,5.07
2022-07-31T16:45:55.324Z,5.20
2022-07-31T16:48:22.707Z,5.47
2022-07-31T16:50:53.275Z,5.38
2022-07-31T16:53:34.663Z,5.90
2022-07-31T16:56:12.231Z,5.40
2022-07-31T16:58:39.877Z,5.97
2022-07-31T17:01:57.218Z,5.80
2022-07-31T17:04:00.293Z,5.13
2022-07-31T17:06:37.227Z,5.80
2022-07-31T17:09:16.400Z,6.03
2022-07-31T17:11:46.590Z,6.00
2022-07-31T17:14:13.770Z,5.88
2022-07-31T17:16:46.333Z,6.40
2022-07-31T17:19:15.611Z,6.50
2022-07-31T17:21:43.875Z,6.10
2022-07-31T17:24:16.059Z,5.97
2022-07-31T17:26:44.486Z,6.50
2022-07-31T17:29:13.015Z,6.15
2022-07-31T17:31:40.301Z,6.10
2022-07-31T17:34:09.503Z,6.03
2022-07-31T17:36:37.461Z,6.15
2022-07-31T17:39:05.605Z,6.15
2022-07-31T17:41:33.815Z,6.30
2022-07-31T17:44:01.584Z,6.50
2022-07-31T17:46:36.567Z,6.32
2022-07-31T17:49:19.670Z,6.50
2022-07-31T17:52:07.703Z,6.63
2022-07-31T17:54:35.612Z,6.95
2022-07-31T17:57:03.969Z,6.90
2022-07-31T17:59:31.787Z,7.07
2022-07-31T18:02:00.569Z,7.60
2022-07-31T18:04:31.242Z,8.55
2022-07-31T18:07:00.083Z,8.48
2022-07-31T18:09:28.307Z,7.75
2022-07-31T18:11:56.463Z,8.00
2022-07-31T18:14:25.403Z,7.85
2022-07-31T18:16:53.615Z,8.10
2022-07-31T18:19:22.182Z,7.88
2022-07-31T18:21:51.028Z,8.43
2022-07-31T18:24:19.232Z,7.70
2022-07-31T18:26:47.053Z,8.00
2022-07-31T18:29:14.348Z,7.72
2022-07-31T18:31:41.688Z,7.65
2022-07-31T18:34:09.207Z,8.23
2022-07-31T18:36:37.676Z,8.68
2022-07-31T18:39:05.631Z,8.00
2022-07-31T18:41:37.333Z,8.20
2022-07-31T18:44:06.270Z,8.30
2022-07-31T18:46:34.296Z,8.15
2022-07-31T18:49:01.740Z,7.82
2022-07-31T18:51:30.094Z,7.80
2022-07-31T18:53:57.971Z,7.70
2022-07-31T18:56:26.354Z,7.93
2022-07-31T18:58:55.095Z,7.30
2022-07-31T19:01:24.333Z,7.00
2022-07-31T19:03:52.625Z,6.32
2022-07-31T19:06:20.340Z,6.50
2022-07-31T19:08:49.727Z,6.10
2022-07-31T19:11:17.165Z,5.72
2022-07-31T19:13:44.962Z,5.00
2022-07-31T19:16:12.543Z,5.03
2022-07-31T19:18:41.896Z,4.57
2022-07-31T19:21:19.123Z,4.75
2022-07-31T19:23:58.880Z,4.30
2022-07-31T19:26:26.175Z,4.40
2022-07-31T19:28:55.076Z,4.20
2022-07-31T19:31:22.862Z,4.50
2022-07-31T19:33:50.379Z,4.45
2022-07-31T19:36:17.910Z,4.07
2022-07-31T19:38:45.803Z,4.00
2022-07-31T19:41:14.887Z,3.92
2022-07-31T19:43:45.121Z,4.43
2022-07-31T19:46:13.123Z,4.30
2022-07-31T19:48:46.923Z,4.20
2022-07-31T19:51:16.070Z,4.40
2022-07-31T19:53:44.747Z,4.57
2022-07-31T19:56:19.668Z,4.65
2022-07-31T19:58:48.743Z,4.80
2022-07-31T20:01:16.414Z,5.15
2022-07-31T20:03:43.919Z,4.90
2022-07-31T20:06:11.355Z,5.25
2022-07-31T20:08:39.191Z,5.00
2022-07-31T20:11:07.071Z,5.07
2022-07-31T20:13:35.592Z,5.45
2022-07-31T20:16:02.916Z,5.70
2022-07-31T20:18:30.801Z,5.57
2022-07-31T20:20:58.105Z,5.72
2022-07-31T20:23:26.574Z,5.32
2022-07-31T20:25:55.082Z,5.03
2022-07-31T20:28:22.581Z,5.20
2022-07-31T20:30:49.900Z,5.05
2022-07-31T20:33:17.869Z,4.40
2022-07-31T20:35:48.738Z,4.57
2022-07-31T20:38:21.632Z,4.18
2022-07-31T20:40:53.750Z,3.92
2022-07-31T20:43:27.024Z,4.18
2022-07-31T20:45:57.825Z,4.50
2022-07-31T20:48:32.612Z,3.75
2022-07-31T20:51:01.821Z,3.40
2022-07-31T20:53:30.576Z,3.67
2022-07-31T20:55:58.732Z,3.55
2022-07-31T20:58:26.651Z,3.35
2022-07-31T21:00:54.741Z,3.60
2022-07-31T21:03:22.281Z,2.92
2022-07-31T21:05:49.838Z,3.42
2022-07-31T21:08:17.399Z,3.13
2022-07-31T21:10:45.128Z,3.30
2022-07-31T21:13:12.939Z,3.58
2022-07-31T21:15:41.914Z,3.30
2022-07-31T21:18:16.093Z,3.40
2022-07-31T21:20:50.891Z,3.35
2022-07-31T21:23:21.824Z,3.42
2022-07-31T21:25:50.407Z,3.42
2022-07-31T21:28:18.000Z,3.13
2022-07-31T21:30:45.521Z,3.10
2022-07-31T21:33:12.923Z,3.45
2022-07-31T21:35:40.888Z,3.22
2022-07-31T21:38:11.792Z,3.35
2022-07-31T21:40:40.638Z,3.95
2022-07-31T21:43:09.406Z,3.47
2022-07-31T21:45:50.302Z,2.63
2022-07-31T21:48:25.484Z,3.42
2022-07-31T21:50:53.861Z,3.20
2022-07-31T21:53:21.252Z,3.28
2022-07-31T21:55:48.682Z,3.20
2022-07-31T21:58:16.454Z,3.20
2022-07-31T22:00:44.296Z,3.17
2022-07-31T22:03:11.896Z,3.30
2022-07-31T22:05:57.690Z,3.33
2022-07-31T22:08:25.017Z,2.80
2022-07-31T22:10:53.046Z,3.05
2022-07-31T22:13:20.649Z,3.25
2022-07-31T22:15:59.090Z,3.08
2022-07-31T22:18:31.355Z,3.10
2022-07-31T22:21:00.498Z,2.92
2022-07-31T22:23:28.605Z,2.90
2022-07-31T22:25:56.258Z,2.85
2022-07-31T22:28:25.475Z,2.80
2022-07-31T22:30:54.150Z,2.70
2022-07-31T22:33:21.873Z,3.03
2022-07-31T22:35:59.011Z,3.13
2022-07-31T22:38:29.841Z,3.08
2022-07-31T22:40:58.823Z,2.85
2022-07-31T22:44:11.457Z,3.20
2022-07-31T22:46:14.479Z,3.30
2022-07-31T22:48:42.119Z,3.00
2022-07-31T22:51:10.828Z,3.13
2022-07-31T22:53:41.909Z,3.08
2022-07-31T22:56:09.097Z,2.75
2022-07-31T22:58:36.381Z,3.10
2022-07-31T23:01:03.718Z,3.08
2022-07-31T23:03:30.961Z,3.55
2022-07-31T23:06:28.045Z,3.50
2022-07-31T23:08:45.463Z,3.00
2022-07-31T23:11:12.713Z,3.47
2022-07-31T23:13:40.069Z,3.22
2022-07-31T23:16:07.265Z,3.20
2022-07-31T23:18:34.518Z,3.33
2022-07-31T23:21:01.840Z,3.28
2022-07-31T23:23:30.861Z,2.83
2022-07-31T23:25:58.277Z,3.30
2022-07-31T23:28:25.396Z,3.28
2022-07-31T23:30:52.714Z,3.00
2022-07-31T23:33:19.893Z,3.30
2022-07-31T23:35:47.086Z,3.20
2022-07-31T23:38:14.506Z,3.60
2022-07-31T23:40:41.701Z,3.20
2022-07-31T23:43:08.971Z,3.40
2022-07-31T23:45:37.020Z,3.72
2022-07-31T23:48:05.188Z,3.50
2022-07-31T23:50:32.568Z,3.30
2022-07-31T23:52:59.742Z,3.40
2022-07-31T23:55:27.077Z,3.78
2022-07-31T23:57:54.698Z,3.88
